Aviation Digital Data Service (ADDS)

Output produced by METARs form (0942 UTC 29 November 2014)
found at http://aviationweather.gov/adds/metars/
 
KLFT 290918Z 2909/3006 18004KT P6SM SKC 
     FM291200 19005KT P6SM SCT015 BKN035 
     FM291600 20012KT P6SM BKN035 
     FM292200 19006KT P6SM SCT035